Time;durP1;ratioP1;P1;durP2;ratioP2;P2;SDS_P1;SDS_P2;PMS_P1;PMS_P2;Temp;Humidity;BMP_temperature;BMP_pressure;BME280_temperature;BME280_humidity;BME280_pressure;Samples;Min_cycle;Max_cycle;Signal;HPM_P1;HPM_P2
2023/01/30 00:01:15;;;;;;;21.07;8.23;;;;;;;2.04;100.00;100874.81;6072551;28;20087;-71
2023/01/30 00:04:11;;;;;;;23.95;9.30;;;;;;;2.12;100.00;100851.69;6072443;28;20465;-72
2023/01/30 00:07:06;;;;;;;24.83;8.98;;;;;;;2.05;100.00;100832.06;6073057;28;20034;-72
2023/01/30 00:10:02;;;;;;;27.27;9.43;;;;;;;2.05;100.00;100829.44;6060011;28;20037;-70
2023/01/30 00:12:57;;;;;;;25.23;8.57;;;;;;;2.08;100.00;100813.59;6065958;28;20026;-70
2023/01/30 00:15:52;;;;;;;21.27;8.40;;;;;;;2.16;100.00;100811.38;6072056;28;20033;-71
2023/01/30 00:18:48;;;;;;;21.40;8.60;;;;;;;2.24;100.00;100775.13;6062528;28;20034;-70
2023/01/30 00:21:43;;;;;;;21.67;9.43;;;;;;;2.14;100.00;100774.00;6074249;28;20440;-72
2023/01/30 00:24:38;;;;;;;29.80;8.80;;;;;;;2.24;100.00;100776.91;6076770;28;20271;-72
2023/01/30 00:27:33;;;;;;;21.00;7.83;;;;;;;2.30;100.00;100787.84;6076055;28;20037;-71
2023/01/30 00:30:29;;;;;;;23.40;8.63;;;;;;;2.22;100.00;100758.69;6075129;28;20072;-71
2023/01/30 00:33:25;;;;;;;24.23;8.60;;;;;;;2.31;99.61;100789.50;6076548;28;20079;-71
2023/01/30 00:36:20;;;;;;;24.35;8.75;;;;;;;2.30;99.41;100776.53;6077427;28;20033;-70
2023/01/30 00:39:15;;;;;;;24.27;8.53;;;;;;;2.42;99.85;100785.44;6076990;28;20492;-70
2023/01/30 00:48:38;;;;;;;24.10;8.52;;;;;;;2.52;99.20;100781.31;6073610;28;20041;-70
2023/01/30 00:51:34;;;;;;;17.03;7.40;;;;;;;2.53;99.12;100778.59;6076985;28;20038;-71
2023/01/30 00:54:29;;;;;;;18.50;8.77;;;;;;;2.55;98.98;100773.28;6076362;28;20049;-70
2023/01/30 00:57:25;;;;;;;22.63;8.18;;;;;;;2.46;99.31;100730.19;6076767;28;20081;-70
2023/01/30 01:00:22;;;;;;;22.73;8.57;;;;;;;2.52;99.60;100734.22;6076678;28;20040;-70
2023/01/30 01:03:18;;;;;;;23.73;8.50;;;;;;;2.50;100.00;100723.00;6075749;28;20030;-71
2023/01/30 01:06:13;;;;;;;23.92;8.55;;;;;;;2.51;100.00;100735.13;6076589;28;20048;-70
2023/01/30 01:09:09;;;;;;;24.80;9.57;;;;;;;2.42;100.00;100720.00;6071278;28;20034;-71
2023/01/30 01:12:04;;;;;;;21.65;8.48;;;;;;;2.46;100.00;100724.13;6048861;28;20026;-72
2023/01/30 01:15:00;;;;;;;29.17;10.18;;;;;;;2.47;100.00;100717.94;6076342;28;20026;-72
2023/01/30 01:17:55;;;;;;;25.87;9.97;;;;;;;2.40;100.00;100704.41;6068295;28;20034;-71
2023/01/30 01:20:50;;;;;;;34.00;10.40;;;;;;;2.40;100.00;100710.47;6064250;28;20029;-70
2023/01/30 01:23:57;;;;;;;30.43;10.93;;;;;;;2.31;100.00;100702.38;6064409;28;20402;-71
2023/01/30 01:26:53;;;;;;;23.73;10.02;;;;;;;2.29;100.00;100688.50;6068987;28;20033;-70
2023/01/30 01:29:48;;;;;;;32.77;12.13;;;;;;;2.16;100.00;100664.91;6075794;28;20049;-70
2023/01/30 01:32:43;;;;;;;33.20;10.87;;;;;;;2.20;100.00;100661.16;6074761;28;20025;-71
2023/01/30 01:35:40;;;;;;;26.27;11.43;;;;;;;2.17;100.00;100645.66;6075840;28;20400;-70
2023/01/30 01:38:35;;;;;;;32.58;10.90;;;;;;;2.17;100.00;100632.59;6076005;28;20274;-69
2023/01/30 01:41:30;;;;;;;28.50;10.97;;;;;;;2.28;100.00;100639.78;6075494;28;20033;-70
2023/01/30 01:44:25;;;;;;;34.60;12.43;;;;;;;2.23;100.00;100613.88;6075255;28;20041;-70
2023/01/30 01:47:21;;;;;;;33.30;12.30;;;;;;;2.30;100.00;100602.09;6075159;28;20497;-68
2023/01/30 01:50:27;;;;;;;32.83;11.10;;;;;;;2.24;100.00;100568.47;6075488;28;20029;-69
2023/01/30 01:53:27;;;;;;;31.10;10.82;;;;;;;2.34;100.00;100580.03;6073844;28;20388;-69
2023/01/30 01:56:23;;;;;;;34.53;11.75;;;;;;;2.39;100.00;100571.91;6075347;28;20029;-70
2023/01/30 01:59:25;;;;;;;33.65;12.45;;;;;;;2.35;100.00;100563.41;6074524;28;20033;-70
2023/01/30 02:02:20;;;;;;;25.77;10.52;;;;;;;2.44;100.00;100576.84;6074413;28;20116;-70
2023/01/30 02:05:16;;;;;;;31.85;12.00;;;;;;;2.34;100.00;100558.25;6075523;28;20420;-69
2023/01/30 02:08:17;;;;;;;30.55;12.05;;;;;;;2.40;100.00;100576.19;6074696;28;20033;-70
2023/01/30 02:11:30;;;;;;;27.17;10.00;;;;;;;2.48;100.00;100570.47;6057064;28;20385;-69
2023/01/30 02:14:25;;;;;;;38.13;11.50;;;;;;;2.47;100.00;100558.34;6059747;28;20037;-70
2023/01/30 02:17:22;;;;;;;26.87;10.67;;;;;;;2.49;100.00;100573.00;6061674;28;20104;-71
2023/01/30 02:20:44;;;;;;;28.88;10.20;;;;;;;2.52;100.00;100551.88;6075164;28;20055;-70
2023/01/30 02:23:55;;;;;;;26.25;10.93;;;;;;;2.61;100.00;100563.53;6068823;28;20045;-69
2023/01/30 02:27:06;;;;;;;20.58;8.75;;;;;;;2.65;100.00;100570.22;6071788;28;20030;-69
2023/01/30 02:30:33;;;;;;;26.63;9.98;;;;;;;2.45;100.00;100516.56;6049973;28;20030;-70
2023/01/30 02:33:43;;;;;;;29.95;9.10;;;;;;;2.65;100.00;100547.50;6048975;28;20037;-69
2023/01/30 02:36:53;;;;;;;24.92;9.75;;;;;;;2.70;100.00;100549.81;6067347;28;20037;-71
2023/01/30 02:40:10;;;;;;;22.23;8.68;;;;;;;2.76;100.00;100534.56;6073757;28;20120;-70
2023/01/30 02:43:24;;;;;;;24.73;9.00;;;;;;;2.78;100.00;100526.59;6061724;28;20083;-70
2023/01/30 02:46:24;;;;;;;22.77;8.63;;;;;;;2.76;100.00;100507.53;6073908;28;20037;-69
2023/01/30 02:49:28;;;;;;;20.33;8.60;;;;;;;2.84;100.00;100513.94;6072850;28;20029;-71
2023/01/30 02:52:23;;;;;;;23.48;8.90;;;;;;;2.91;100.00;100520.44;6071723;28;20033;-70
2023/01/30 02:55:23;;;;;;;25.40;9.45;;;;;;;2.84;100.00;100486.91;6063862;28;20037;-73
2023/01/30 02:58:20;;;;;;;23.58;9.25;;;;;;;2.96;100.00;100507.06;6073680;28;20548;-72
2023/01/30 03:01:48;;;;;;;25.23;8.73;;;;;;;2.97;100.00;100487.78;6072877;28;20025;-72
2023/01/30 03:05:03;;;;;;;24.92;9.95;;;;;;;3.08;100.00;100485.25;6068776;28;20037;-70
2023/01/30 03:08:06;;;;;;;20.17;9.05;;;;;;;3.11;100.00;100477.19;6072580;28;20048;-72
2023/01/30 03:11:03;;;;;;;24.67;9.40;;;;;;;3.17;100.00;100466.31;6070581;28;20030;-70
2023/01/30 03:14:08;;;;;;;28.08;9.23;;;;;;;3.14;100.00;100456.03;6071546;28;20037;-70
2023/01/30 03:17:05;;;;;;;23.65;8.75;;;;;;;3.22;100.00;100471.22;6072444;28;20044;-71
2023/01/30 03:20:00;;;;;;;27.85;8.35;;;;;;;3.21;100.00;100448.59;6072805;28;20156;-70
2023/01/30 03:22:56;;;;;;;23.00;9.57;;;;;;;3.16;100.00;100422.72;6067678;28;20034;-71
2023/01/30 03:25:51;;;;;;;24.83;9.30;;;;;;;3.25;100.00;100437.81;6066222;28;20171;-70
2023/01/30 03:28:48;;;;;;;23.23;9.73;;;;;;;3.29;100.00;100439.25;6073682;28;20476;-71
2023/01/30 03:31:44;;;;;;;25.15;9.52;;;;;;;3.36;100.00;100453.63;6073088;28;20029;-71
2023/01/30 03:34:39;;;;;;;28.33;10.57;;;;;;;3.30;100.00;100425.22;6072487;28;20049;-71
2023/01/30 03:37:34;;;;;;;26.20;9.13;;;;;;;3.34;100.00;100421.41;6073644;28;20029;-72
2023/01/30 03:40:30;;;;;;;24.20;10.13;;;;;;;3.41;100.00;100417.44;6072037;28;20025;-72
2023/01/30 03:43:25;;;;;;;29.02;10.30;;;;;;;3.30;100.00;100419.13;6072781;28;20068;-70
2023/01/30 03:46:21;;;;;;;29.97;11.00;;;;;;;3.11;100.00;100393.38;6073329;28;20037;-70
2023/01/30 03:49:16;;;;;;;27.70;10.13;;;;;;;3.15;100.00;100407.13;6072995;28;20036;-70
2023/01/30 03:52:12;;;;;;;30.15;12.73;;;;;;;3.04;100.00;100402.63;6072391;28;20492;-70
2023/01/30 03:55:07;;;;;;;32.50;12.17;;;;;;;3.11;100.00;100409.09;6073095;28;20037;-71
2023/01/30 03:58:03;;;;;;;28.75;11.77;;;;;;;3.04;100.00;100401.78;6069933;28;20072;-70
2023/01/30 04:00:58;;;;;;;37.67;12.63;;;;;;;3.00;100.00;100393.28;6077825;28;20130;-71
2023/01/30 04:03:53;;;;;;;30.43;12.67;;;;;;;2.99;100.00;100375.88;6077094;28;20041;-72
2023/01/30 04:06:48;;;;;;;34.70;12.10;;;;;;;2.98;100.00;100376.84;6077842;28;20036;-70
2023/01/30 04:09:44;;;;;;;34.70;11.93;;;;;;;3.06;100.00;100389.41;6067681;28;20033;-72
2023/01/30 04:12:40;;;;;;;40.93;13.50;;;;;;;3.08;100.00;100375.25;6064461;28;20030;-71
2023/01/30 04:15:36;;;;;;;39.25;12.75;;;;;;;3.04;100.00;100386.91;6077722;28;20029;-70
2023/01/30 04:18:32;;;;;;;36.73;12.10;;;;;;;2.99;100.00;100350.53;6065914;28;20064;-71
2023/01/30 04:21:27;;;;;;;37.28;12.65;;;;;;;3.07;100.00;100365.75;6077105;28;20041;-72
2023/01/30 04:24:23;;;;;;;29.37;11.20;;;;;;;3.11;100.00;100371.59;6076732;28;20030;-70
2023/01/30 04:27:18;;;;;;;32.83;11.93;;;;;;;3.10;100.00;100370.75;6070089;28;20436;-71
2023/01/30 04:30:13;;;;;;;32.30;11.33;;;;;;;3.03;100.00;100353.78;6053164;28;20105;-70
2023/01/30 04:33:09;;;;;;;32.33;12.18;;;;;;;3.11;100.00;100367.19;6076662;28;20033;-71
2023/01/30 04:36:05;;;;;;;32.73;11.37;;;;;;;3.12;100.00;100357.56;6074684;28;20030;-70
2023/01/30 04:39:01;;;;;;;28.77;10.25;;;;;;;3.05;100.00;100345.81;6076982;28;20271;-70
2023/01/30 04:41:56;;;;;;;24.97;10.57;;;;;;;3.17;100.00;100372.00;6076238;28;20029;-71
2023/01/30 04:44:51;;;;;;;30.50;10.90;;;;;;;3.14;100.00;100361.75;6075743;28;20026;-72
2023/01/30 04:47:47;;;;;;;31.17;11.50;;;;;;;3.19;100.00;100351.78;6077174;28;20517;-72
2023/01/30 04:50:43;;;;;;;28.27;10.63;;;;;;;3.23;100.00;100355.88;6076874;28;20095;-71
2023/01/30 04:53:39;;;;;;;29.95;10.93;;;;;;;3.22;100.00;100338.47;6076464;28;20037;-71
2023/01/30 04:56:34;;;;;;;32.50;11.87;;;;;;;3.32;100.00;100349.09;6076911;28;20041;-71
2023/01/30 04:59:29;;;;;;;27.03;10.93;;;;;;;3.25;100.00;100327.78;6066959;28;20053;-72
2023/01/30 05:02:25;;;;;;;34.70;11.50;;;;;;;3.22;100.00;100312.25;6076143;28;20057;-71
2023/01/30 05:05:21;;;;;;;27.00;9.27;;;;;;;3.38;100.00;100328.56;6058464;28;20060;-71
2023/01/30 05:08:17;;;;;;;26.58;10.90;;;;;;;3.35;100.00;100310.44;6076003;28;20113;-71
2023/01/30 05:11:12;;;;;;;24.70;9.35;;;;;;;3.36;100.00;100317.34;6058179;28;20057;-71
2023/01/30 05:14:07;;;;;;;26.03;9.57;;;;;;;3.38;100.00;100302.34;6075657;28;20042;-70
2023/01/30 05:17:03;;;;;;;22.90;9.75;;;;;;;3.40;100.00;100287.34;6066518;28;20048;-70
2023/01/30 05:19:58;;;;;;;18.77;7.80;;;;;;;3.49;100.00;100289.31;6074842;28;20033;-71
2023/01/30 05:22:53;;;;;;;23.00;9.43;;;;;;;3.53;100.00;100301.22;6067186;28;20041;-71
2023/01/30 05:25:49;;;;;;;20.02;7.53;;;;;;;3.52;100.00;100286.47;6076249;28;20112;-70
2023/01/30 05:28:53;;;;;;;18.77;7.77;;;;;;;3.61;100.00;100298.06;6075912;28;20081;-69
2023/01/30 05:31:48;;;;;;;19.67;7.70;;;;;;;3.57;100.00;100267.78;6067960;28;20033;-70
2023/01/30 05:34:44;;;;;;;24.03;8.53;;;;;;;3.69;100.00;100282.63;6075709;28;20037;-70
2023/01/30 05:37:39;;;;;;;20.10;7.57;;;;;;;3.76;100.00;100277.75;6072459;28;20100;-70
2023/01/30 05:40:34;;;;;;;22.30;8.10;;;;;;;3.86;100.00;100284.00;6073293;28;20276;-70
2023/01/30 05:43:30;;;;;;;22.50;7.53;;;;;;;3.82;100.00;100283.38;6075044;28;20049;-70
2023/01/30 05:46:25;;;;;;;21.08;7.72;;;;;;;3.90;100.00;100294.13;6075997;28;20044;-69
2023/01/30 05:49:20;;;;;;;20.02;7.15;;;;;;;3.88;100.00;100271.59;6075644;28;20041;-70
2023/01/30 05:52:16;;;;;;;21.93;7.47;;;;;;;3.94;100.00;100263.28;6074245;28;20040;-70
2023/01/30 05:55:11;;;;;;;14.07;6.10;;;;;;;4.01;100.00;100290.72;6075116;28;20287;-70
2023/01/30 05:58:06;;;;;;;14.77;5.77;;;;;;;4.06;100.00;100283.31;6074879;28;20037;-70
2023/01/30 06:01:04;;;;;;;14.47;6.27;;;;;;;4.07;100.00;100290.25;6075486;28;20037;-71
2023/01/30 06:03:59;;;;;;;13.60;5.28;;;;;;;4.10;100.00;100292.66;6074002;28;20086;-69
2023/01/30 06:06:55;;;;;;;14.80;5.82;;;;;;;4.13;100.00;100264.38;6075588;28;20037;-70
2023/01/30 06:09:50;;;;;;;9.87;5.37;;;;;;;4.13;100.00;100272.25;6064530;28;20036;-70
2023/01/30 06:12:45;;;;;;;9.17;3.77;;;;;;;4.12;100.00;100238.28;6067218;28;20039;-70
2023/01/30 06:15:41;;;;;;;9.40;4.33;;;;;;;4.23;100.00;100248.78;6075384;28;20037;-70
2023/01/30 06:18:36;;;;;;;9.53;3.90;;;;;;;4.25;100.00;100246.88;6069153;28;20041;-70
2023/01/30 06:21:32;;;;;;;11.77;4.40;;;;;;;4.25;100.00;100243.41;6074575;28;20041;-70
2023/01/30 06:24:27;;;;;;;8.03;3.33;;;;;;;4.29;100.00;100256.19;6074371;28;20496;-70
2023/01/30 06:27:22;;;;;;;8.15;3.85;;;;;;;4.17;100.00;100249.25;6073889;28;20057;-70
2023/01/30 06:30:18;;;;;;;11.27;4.67;;;;;;;4.22;100.00;100253.19;6056902;28;20034;-70
2023/01/30 06:33:13;;;;;;;10.27;4.13;;;;;;;4.33;100.00;100268.13;6050151;28;20033;-71
2023/01/30 06:36:09;;;;;;;9.57;4.22;;;;;;;4.32;100.00;100269.06;6050963;28;20117;-70
2023/01/30 06:39:04;;;;;;;9.17;3.47;;;;;;;4.32;100.00;100273.50;6074425;28;20186;-70
2023/01/30 06:41:59;;;;;;;7.10;3.30;;;;;;;4.33;100.00;100283.03;6073905;28;20059;-71
2023/01/30 06:44:56;;;;;;;9.30;3.27;;;;;;;4.30;100.00;100268.34;6066753;28;20041;-71
2023/01/30 06:47:52;;;;;;;6.90;3.05;;;;;;;4.34;100.00;100275.03;6048731;28;20030;-70
2023/01/30 06:50:48;;;;;;;7.55;3.13;;;;;;;4.38;100.00;100300.09;6063991;28;20393;-71
2023/01/30 06:53:43;;;;;;;6.10;2.73;;;;;;;4.17;100.00;100263.22;6073522;28;20037;-71
2023/01/30 06:56:38;;;;;;;10.03;3.03;;;;;;;4.39;100.00;100309.66;6073644;28;20048;-71
2023/01/30 06:59:34;;;;;;;8.33;2.93;;;;;;;4.38;100.00;100294.84;6062714;28;20474;-71
2023/01/30 07:02:31;;;;;;;9.13;3.07;;;;;;;4.50;100.00;100312.28;6064701;28;20332;-70
2023/01/30 07:05:27;;;;;;;8.07;3.03;;;;;;;4.41;100.00;100310.34;6063281;28;20045;-72
2023/01/30 07:08:23;;;;;;;6.95;3.25;;;;;;;4.28;100.00;100293.88;6050153;28;20045;-70
2023/01/30 07:11:18;;;;;;;10.90;3.27;;;;;;;4.47;100.00;100337.94;6054197;28;20036;-71
2023/01/30 07:14:13;;;;;;;6.37;2.70;;;;;;;4.49;100.00;100328.97;6072830;28;20087;-70
2023/01/30 07:17:08;;;;;;;9.40;2.77;;;;;;;4.63;100.00;100323.53;6062514;28;20042;-71
2023/01/30 07:20:04;;;;;;;11.80;3.13;;;;;;;4.65;100.00;100323.38;6072640;28;20029;-70
2023/01/30 07:22:59;;;;;;;10.57;3.08;;;;;;;4.61;100.00;100321.97;6072793;28;20036;-68
2023/01/30 07:25:55;;;;;;;9.20;2.90;;;;;;;4.62;100.00;100324.47;6070527;28;20036;-70
2023/01/30 07:28:50;;;;;;;7.47;2.53;;;;;;;4.54;100.00;100332.09;6073353;28;20048;-71
2023/01/30 07:31:45;;;;;;;6.30;2.47;;;;;;;4.55;100.00;100327.69;6073173;28;20025;-71
2023/01/30 07:34:41;;;;;;;9.57;2.70;;;;;;;4.71;100.00;100334.25;6072154;28;20045;-71
2023/01/30 07:37:36;;;;;;;8.40;2.93;;;;;;;4.63;100.00;100328.78;6073352;28;20037;-72
2023/01/30 07:40:31;;;;;;;9.50;3.10;;;;;;;4.57;100.00;100320.50;6064008;28;20280;-71
2023/01/30 07:43:27;;;;;;;12.88;2.65;;;;;;;4.52;100.00;100326.13;6060712;28;20054;-74
2023/01/30 07:46:22;;;;;;;9.63;3.70;;;;;;;4.53;100.00;100319.09;6072228;28;20433;-71
2023/01/30 07:49:17;;;;;;;9.23;2.67;;;;;;;4.41;100.00;100315.59;6072004;28;20436;-72
2023/01/30 07:52:13;;;;;;;10.07;2.40;;;;;;;4.48;100.00;100327.34;6072280;28;20040;-71
2023/01/30 07:55:08;;;;;;;9.00;1.98;;;;;;;4.45;100.00;100324.94;6073607;28;20041;-71
2023/01/30 07:58:04;;;;;;;9.95;2.13;;;;;;;4.57;100.00;100336.25;6069935;28;20417;-72
2023/01/30 08:00:59;;;;;;;9.03;1.60;;;;;;;4.48;99.98;100322.06;6073215;28;20021;-71
2023/01/30 08:03:54;;;;;;;10.40;1.60;;;;;;;4.65;99.64;100328.63;6069485;28;20164;-70
2023/01/30 08:06:49;;;;;;;9.00;1.97;;;;;;;4.72;99.54;100338.56;6063533;28;20284;-71
2023/01/30 08:09:45;;;;;;;6.97;1.90;;;;;;;4.77;99.41;100311.94;6057534;28;20077;-70
2023/01/30 08:12:40;;;;;;;6.77;1.50;;;;;;;4.67;99.39;100301.31;6064063;28;20473;-72
2023/01/30 08:15:36;;;;;;;11.70;3.22;;;;;;;4.82;98.92;100331.66;6063022;28;20038;-72
2023/01/30 08:18:32;;;;;;;6.77;1.80;;;;;;;4.90;98.79;100338.09;6066716;28;20392;-71
2023/01/30 08:21:27;;;;;;;7.85;1.80;;;;;;;4.98;98.92;100352.31;6072882;28;20148;-71
2023/01/30 08:24:23;;;;;;;5.40;1.83;;;;;;;4.95;97.87;100341.19;6071966;28;20037;-70
2023/01/30 08:27:18;;;;;;;12.40;1.50;;;;;;;4.99;96.79;100347.88;6072673;28;20496;-71
2023/01/30 08:30:13;;;;;;;8.33;1.47;;;;;;;4.99;94.15;100342.63;6064481;28;20292;-70
2023/01/30 08:33:08;;;;;;;18.15;1.73;;;;;;;5.15;93.01;100359.72;6054947;28;20593;-70
2023/01/30 08:36:04;;;;;;;7.10;1.83;;;;;;;5.15;92.67;100356.25;6056641;28;20037;-71
2023/01/30 08:38:59;;;;;;;8.95;1.73;;;;;;;5.19;92.11;100355.88;6072925;28;20030;-69
2023/01/30 08:41:55;;;;;;;10.10;2.67;;;;;;;5.23;91.44;100356.47;6071436;28;20045;-70
2023/01/30 08:44:50;;;;;;;10.30;1.47;;;;;;;5.26;89.75;100341.31;6077291;28;20488;-70
2023/01/30 08:47:45;;;;;;;12.13;2.20;;;;;;;5.28;90.50;100354.31;6075430;28;20048;-70
2023/01/30 08:50:41;;;;;;;16.77;2.57;;;;;;;5.32;89.86;100361.03;6064541;28;20030;-68
2023/01/30 08:53:36;;;;;;;9.73;1.90;;;;;;;5.23;90.41;100352.06;6075602;28;20142;-69
2023/01/30 08:56:31;;;;;;;17.97;2.40;;;;;;;5.20;90.20;100356.72;6069158;28;20033;-70
2023/01/30 08:59:26;;;;;;;4.95;1.52;;;;;;;5.20;91.48;100343.56;6063189;28;20038;-69
2023/01/30 09:02:22;;;;;;;8.43;1.60;;;;;;;5.31;88.77;100360.19;6075183;28;20041;-69
2023/01/30 09:05:17;;;;;;;12.60;1.90;;;;;;;5.29;89.77;100353.38;6073619;28;20419;-71
2023/01/30 09:08:13;;;;;;;12.23;2.90;;;;;;;5.36;89.15;100357.19;6071898;28;20064;-71
2023/01/30 09:11:10;;;;;;;7.97;1.87;;;;;;;5.23;89.39;100336.28;6057850;28;20037;-71
2023/01/30 09:14:05;;;;;;;15.45;2.13;;;;;;;5.40;89.79;100345.47;6076081;28;20053;-71
2023/01/30 09:17:00;;;;;;;6.50;1.50;;;;;;;5.43;89.68;100358.38;6072045;28;20043;-71
2023/01/30 09:19:56;;;;;;;5.57;1.40;;;;;;;5.29;89.17;100345.47;6070804;28;20021;-70
2023/01/30 09:22:51;;;;;;;9.73;1.87;;;;;;;5.36;89.75;100362.44;6066898;28;20065;-72
2023/01/30 09:25:46;;;;;;;11.80;2.10;;;;;;;5.29;90.77;100377.03;6070921;28;20111;-72
2023/01/30 09:28:41;;;;;;;10.47;1.93;;;;;;;5.27;90.80;100363.19;6076243;28;20033;-70
2023/01/30 09:31:37;;;;;;;9.73;1.93;;;;;;;5.27;89.11;100350.03;6075957;28;20400;-71
2023/01/30 09:34:32;;;;;;;5.35;1.88;;;;;;;5.54;87.52;100368.88;6069132;28;20056;-71
2023/01/30 09:37:28;;;;;;;4.90;1.27;;;;;;;5.54;88.20;100362.78;6076302;28;20060;-72
2023/01/30 09:40:26;;;;;;;10.47;1.83;;;;;;;5.58;87.39;100359.75;6075959;28;20339;-71
2023/01/30 09:43:33;;;;;;;13.93;2.47;;;;;;;5.53;86.95;100364.56;6075422;28;20033;-72
2023/01/30 09:46:35;;;;;;;10.77;1.45;;;;;;;5.69;86.94;100346.59;6074633;28;20389;-70
2023/01/30 09:49:39;;;;;;;13.23;2.63;;;;;;;5.99;85.60;100373.06;6051625;28;20041;-72
2023/01/30 09:52:55;;;;;;;11.27;1.92;;;;;;;6.03;83.69;100367.56;6063152;28;20121;-70
2023/01/30 09:55:50;;;;;;;10.52;1.90;;;;;;;5.95;84.44;100342.69;6063181;28;20108;-72
2023/01/30 09:58:56;;;;;;;14.00;3.33;;;;;;;6.03;85.37;100372.81;6046043;28;20045;-71
2023/01/30 10:01:54;;;;;;;11.52;1.92;;;;;;;6.04;84.57;100342.91;6074677;28;20284;-71
2023/01/30 10:04:51;;;;;;;7.03;1.98;;;;;;;6.06;85.08;100362.06;6075050;28;20041;-71
2023/01/30 10:07:53;;;;;;;13.43;1.75;;;;;;;5.96;84.91;100362.78;6073998;28;20120;-71
2023/01/30 10:11:03;;;;;;;11.27;2.22;;;;;;;5.91;84.04;100343.09;6050587;28;20030;-69
2023/01/30 10:14:26;;;;;;;14.05;2.40;;;;;;;5.99;84.07;100365.19;6074508;28;20029;-72
2023/01/30 10:17:38;;;;;;;8.57;1.75;;;;;;;5.98;85.04;100345.06;6044170;28;20041;-72
2023/01/30 10:20:49;;;;;;;12.57;1.38;;;;;;;6.16;82.15;100339.28;6065414;28;20501;-72
2023/01/30 10:24:09;;;;;;;7.75;1.48;;;;;;;6.21;80.75;100344.97;6056942;28;20025;-72
2023/01/30 10:27:11;;;;;;;12.57;2.10;;;;;;;6.24;81.60;100342.94;6071662;28;20037;-70
2023/01/30 10:30:07;;;;;;;13.00;1.58;;;;;;;6.12;80.83;100324.69;6075131;28;20100;-71
2023/01/30 10:33:06;;;;;;;9.75;1.58;;;;;;;6.06;80.98;100322.56;6072741;28;20084;-71
2023/01/30 10:36:13;;;;;;;6.43;1.40;;;;;;;6.02;81.37;100327.25;6068070;28;20037;-71
2023/01/30 10:39:21;;;;;;;10.80;1.80;;;;;;;6.04;81.72;100330.59;6069276;28;20033;-71
2023/01/30 10:42:22;;;;;;;12.13;1.63;;;;;;;6.06;80.64;100357.59;6072932;28;20044;-72
2023/01/30 10:45:20;;;;;;;;;;;;;;;5.97;81.06;100343.44;6074026;28;20371;-71
2023/01/30 10:48:48;;;;;;;6.10;1.70;;;;;;;6.26;80.07;100327.00;6081298;28;19929;-71
2023/01/30 10:52:09;;;;;;;21.05;1.95;;;;;;;6.61;78.10;100322.22;6057743;28;20025;-70
2023/01/30 10:55:33;;;;;;;11.13;1.65;;;;;;;6.67;78.56;100315.59;6073477;28;20083;-70
2023/01/30 10:58:59;;;;;;;9.02;1.63;;;;;;;6.50;79.46;100301.22;6065856;28;20093;-72
2023/01/30 11:02:04;;;;;;;11.48;1.45;;;;;;;6.72;78.45;100318.69;6081043;28;20041;-70
2023/01/30 11:05:12;;;;;;;8.85;1.85;;;;;;;6.72;78.58;100302.88;6088869;28;20381;-71
2023/01/30 11:08:17;;;;;;;5.68;1.85;;;;;;;6.75;78.03;100292.91;6069515;28;20037;-72
2023/01/30 11:11:25;;;;;;;6.70;1.42;;;;;;;6.98;76.86;100299.69;6055179;28;20109;-70
2023/01/30 11:14:20;;;;;;;11.25;1.73;;;;;;;6.95;76.50;100305.22;6072633;28;20037;-70
2023/01/30 11:17:17;;;;;;;13.43;1.95;;;;;;;7.15;75.75;100283.19;6062227;28;20185;-71
2023/01/30 11:20:15;;;;;;;11.27;1.90;;;;;;;6.84;76.18;100276.31;6067795;28;20136;-71
2023/01/30 11:23:25;;;;;;;12.27;2.00;;;;;;;6.80;77.12;100274.91;6072909;28;20029;-70
2023/01/30 11:26:38;;;;;;;7.93;1.80;;;;;;;6.50;78.90;100319.66;6073619;28;20116;-71
2023/01/30 11:29:37;;;;;;;7.28;1.63;;;;;;;5.65;86.22;100279.44;6070023;28;20033;-71
2023/01/30 11:32:32;;;;;;;13.60;1.88;;;;;;;5.50;87.75;100317.47;6067204;28;20042;-71
2023/01/30 11:35:28;;;;;;;6.50;1.23;;;;;;;5.56;87.86;100314.34;6073449;28;20036;-71
2023/01/30 11:38:29;;;;;;;9.18;1.42;;;;;;;5.76;86.81;100286.44;6072397;28;20112;-71
2023/01/30 11:41:25;;;;;;;7.80;1.60;;;;;;;5.91;85.62;100291.31;6049482;28;20045;-70
2023/01/30 11:44:27;;;;;;;10.43;2.90;;;;;;;6.08;84.49;100303.06;6072860;28;20044;-73
2023/01/30 11:47:24;;;;;;;10.15;1.98;;;;;;;6.03;83.96;100296.50;6073423;28;20021;-71
2023/01/30 11:50:22;;;;;;;8.93;1.65;;;;;;;5.93;84.48;100299.88;6061060;28;20044;-72
2023/01/30 11:53:31;;;;;;;11.25;1.77;;;;;;;5.90;85.89;100291.41;6063838;28;20033;-73
2023/01/30 11:56:34;;;;;;;6.13;1.60;;;;;;;5.72;85.89;100291.09;6063963;28;20088;-72
2023/01/30 11:59:35;;;;;;;8.90;1.20;;;;;;;5.41;87.33;100270.88;6049550;28;20076;-70
2023/01/30 12:02:32;;;;;;;10.32;2.55;;;;;;;5.32;89.00;100275.13;6060467;28;20038;-71
2023/01/30 12:05:41;;;;;;;6.20;1.50;;;;;;;5.31;89.25;100277.84;6058152;28;20046;-72
2023/01/30 12:08:37;;;;;;;12.15;2.17;;;;;;;5.41;89.80;100276.13;6064729;28;20430;-71
2023/01/30 12:11:35;;;;;;;10.52;1.70;;;;;;;5.52;88.69;100251.63;6080225;28;20095;-71
2023/01/30 12:14:40;;;;;;;9.85;2.08;;;;;;;5.57;89.67;100263.41;6061687;28;20030;-71
2023/01/30 12:17:46;;;;;;;9.65;2.03;;;;;;;5.41;90.59;100265.63;6060835;28;20526;-70
2023/01/30 12:20:53;;;;;;;8.63;1.85;;;;;;;5.33;92.19;100273.28;6065887;28;20113;-71
2023/01/30 12:23:55;;;;;;;9.65;1.73;;;;;;;5.05;94.57;100273.84;6066958;28;20064;-71
2023/01/30 12:27:00;;;;;;;10.63;1.70;;;;;;;4.88;98.23;100267.28;6077108;28;20030;-70
2023/01/30 12:30:11;;;;;;;7.88;1.80;;;;;;;4.76;98.97;100252.50;6067139;28;20112;-71
2023/01/30 12:33:10;;;;;;;6.35;1.90;;;;;;;5.03;98.14;100260.00;6067262;28;20037;-72
2023/01/30 12:36:45;;;;;;;4.50;1.27;;;;;;;5.15;96.33;100248.50;6074094;28;20056;-72
2023/01/30 12:40:18;;;;;;;8.20;1.88;;;;;;;5.06;93.17;100286.00;6052387;28;20037;-71
2023/01/30 12:43:16;;;;;;;2.72;0.73;;;;;;;4.82;93.29;100284.38;6052864;28;20046;-70
2023/01/30 12:46:33;;;;;;;3.67;0.73;;;;;;;4.66;93.14;100278.66;6071112;28;20044;-71
2023/01/30 12:49:46;;;;;;;6.18;1.38;;;;;;;4.48;94.41;100295.84;6051032;28;20125;-71
2023/01/30 12:52:57;;;;;;;4.75;1.02;;;;;;;4.33;96.62;100291.72;6067678;28;20041;-70
2023/01/30 12:56:30;;;;;;;4.03;1.33;;;;;;;4.41;98.41;100305.09;6076346;28;20412;-71
2023/01/30 12:59:45;;;;;;;8.77;1.35;;;;;;;4.44;99.57;100299.63;6067292;28;20034;-71
2023/01/30 13:02:59;;;;;;;3.80;1.38;;;;;;;4.32;99.82;100304.97;6054788;28;20409;-70
2023/01/30 13:06:02;;;;;;;12.68;2.40;;;;;;;4.22;100.00;100302.19;6074454;28;20064;-72
2023/01/30 13:09:18;;;;;;;7.47;1.85;;;;;;;4.37;100.00;100287.94;6063115;28;20393;-72
2023/01/30 13:12:40;;;;;;;4.28;1.10;;;;;;;4.54;99.43;100287.47;6070051;28;20038;-71
2023/01/30 13:15:59;;;;;;;7.40;1.30;;;;;;;4.91;98.55;100298.56;6075255;28;20040;-71
2023/01/30 13:18:56;;;;;;;8.98;2.28;;;;;;;5.08;97.08;100284.13;6057498;28;20034;-72
2023/01/30 13:22:01;;;;;;;8.75;1.73;;;;;;;5.25;95.63;100286.22;6074037;28;20116;-70
2023/01/30 13:25:03;;;;;;;5.00;1.42;;;;;;;5.48;93.66;100258.09;6074297;28;20033;-71
2023/01/30 13:28:02;;;;;;;8.80;2.20;;;;;;;5.73;91.93;100295.41;6074622;28;20033;-71
2023/01/30 13:30:57;;;;;;;8.60;1.33;;;;;;;5.84;91.40;100303.25;6059831;28;20038;-72
2023/01/30 13:34:06;;;;;;;6.72;1.10;;;;;;;5.93;89.88;100285.91;6073660;28;20038;-72
2023/01/30 13:37:06;;;;;;;14.63;1.45;;;;;;;5.77;89.20;100315.22;6091780;28;20073;-71
2023/01/30 13:40:18;;;;;;;14.35;2.03;;;;;;;5.61;89.08;100301.66;6061105;28;20480;-72
2023/01/30 13:43:37;;;;;;;6.97;1.48;;;;;;;5.60;89.53;100305.25;6067714;28;20034;-70
2023/01/30 13:46:36;;;;;;;15.05;1.90;;;;;;;5.48;89.29;100308.88;6071630;28;20041;-72
2023/01/30 13:49:48;;;;;;;5.53;1.25;;;;;;;5.38;89.68;100297.44;6063776;28;20029;-70
2023/01/30 13:52:49;;;;;;;5.88;1.48;;;;;;;5.38;89.74;100313.22;6050806;28;20116;-70
2023/01/30 13:55:50;;;;;;;11.68;1.20;;;;;;;5.40;89.43;100313.91;6075560;28;20040;-71
2023/01/30 13:59:10;;;;;;;9.77;1.38;;;;;;;5.46;88.61;100305.56;6074248;28;20091;-70